createdAt,value
2023-12-15T00:00:25.516Z,9.90
2023-12-15T00:02:52.520Z,8.90
2023-12-15T00:05:19.319Z,8.40
2023-12-15T00:07:46.090Z,9.23
2023-12-15T00:10:13.304Z,9.93
2023-12-15T00:12:40.050Z,8.67
2023-12-15T00:15:07.385Z,9.53
2023-12-15T00:17:34.547Z,9.03
2023-12-15T00:20:01.621Z,8.50
2023-12-15T00:22:28.346Z,8.67
2023-12-15T00:24:55.445Z,9.87
2023-12-15T00:27:22.123Z,12.17
2023-12-15T00:29:48.843Z,9.30
2023-12-15T00:32:15.619Z,8.70
2023-12-15T00:34:42.311Z,8.60
2023-12-15T00:37:08.991Z,9.90
2023-12-15T00:39:38.874Z,8.27
2023-12-15T00:42:08.376Z,9.80
2023-12-15T00:44:35.198Z,11.30
2023-12-15T00:47:02.415Z,10.03
2023-12-15T00:49:29.312Z,8.70
2023-12-15T00:51:56.061Z,7.57
2023-12-15T00:54:22.869Z,9.13
2023-12-15T00:56:50.288Z,8.30
2023-12-15T00:59:17.941Z,10.07
2023-12-15T01:01:44.809Z,7.47
2023-12-15T01:04:11.860Z,8.83
2023-12-15T01:06:38.694Z,9.00
2023-12-15T01:09:06.399Z,7.30
2023-12-15T01:11:33.161Z,8.33
2023-12-15T01:13:59.990Z,8.23
2023-12-15T01:16:26.723Z,9.57
2023-12-15T01:18:53.724Z,8.33
2023-12-15T01:21:20.482Z,8.10
2023-12-15T01:23:47.253Z,7.30
2023-12-15T01:26:14.062Z,10.13
2023-12-15T01:28:40.805Z,7.10
2023-12-15T01:31:07.537Z,8.10
2023-12-15T01:33:34.328Z,6.90
2023-12-15T01:36:01.226Z,7.67
2023-12-15T01:38:28.014Z,11.50
2023-12-15T01:40:54.870Z,8.30
2023-12-15T01:43:21.615Z,7.77
2023-12-15T01:45:53.064Z,7.83
2023-12-15T01:48:25.045Z,6.73
2023-12-15T01:50:52.150Z,10.27
2023-12-15T01:53:18.900Z,8.70
2023-12-15T01:55:45.605Z,8.07
2023-12-15T01:58:12.473Z,9.03
2023-12-15T02:00:39.246Z,7.20
2023-12-15T02:03:06.680Z,7.83
2023-12-15T02:05:33.487Z,8.27
2023-12-15T02:08:00.760Z,8.80
2023-12-15T02:10:27.524Z,8.63
2023-12-15T02:12:54.227Z,5.83
2023-12-15T02:15:20.903Z,6.60
2023-12-15T02:17:47.723Z,7.03
2023-12-15T02:20:14.587Z,6.73
2023-12-15T02:22:41.317Z,6.23
2023-12-15T02:25:08.393Z,7.10
2023-12-15T02:27:35.368Z,6.03
2023-12-15T02:30:02.176Z,6.33
2023-12-15T02:32:28.958Z,6.53
2023-12-15T02:34:55.730Z,7.63
2023-12-15T02:37:22.442Z,7.20
2023-12-15T02:39:49.166Z,9.07
2023-12-15T02:42:15.824Z,6.27
2023-12-15T02:44:46.643Z,7.67
2023-12-15T02:47:13.470Z,8.13
2023-12-15T02:49:41.111Z,7.73
2023-12-15T02:52:08.350Z,8.23
2023-12-15T02:54:35.520Z,7.33
2023-12-15T02:57:02.214Z,8.13
2023-12-15T02:59:28.933Z,7.87
2023-12-15T03:01:55.707Z,7.30
2023-12-15T03:04:22.406Z,8.07
2023-12-15T03:06:49.138Z,9.10
2023-12-15T03:09:15.815Z,8.43
2023-12-15T03:11:42.496Z,9.77
2023-12-15T03:14:09.230Z,7.47
2023-12-15T03:16:35.916Z,9.43
2023-12-15T03:19:02.633Z,7.37
2023-12-15T03:21:29.331Z,8.83
2023-12-15T03:23:56.770Z,9.10
2023-12-15T03:26:23.553Z,8.07
2023-12-15T03:28:50.240Z,7.83
2023-12-15T03:31:16.918Z,9.47
2023-12-15T03:33:43.761Z,10.00
2023-12-15T03:36:10.472Z,9.93
2023-12-15T03:38:37.250Z,10.07
2023-12-15T03:41:04.191Z,10.97
2023-12-15T03:43:30.965Z,9.23
2023-12-15T03:45:57.653Z,10.93
2023-12-15T03:48:24.661Z,11.20
2023-12-15T03:50:51.468Z,9.83
2023-12-15T03:53:18.148Z,8.83
2023-12-15T03:55:44.921Z,11.30
2023-12-15T03:58:11.678Z,11.70
2023-12-15T04:00:38.489Z,9.83
2023-12-15T04:03:05.273Z,10.67
2023-12-15T04:05:32.005Z,12.97
2023-12-15T04:07:58.809Z,13.10
2023-12-15T04:10:25.547Z,11.43
2023-12-15T04:12:52.285Z,11.83
2023-12-15T04:15:20.432Z,12.10
2023-12-15T04:17:47.298Z,11.57
2023-12-15T04:20:14.439Z,14.70
2023-12-15T04:22:41.707Z,11.90
2023-12-15T04:25:08.665Z,11.97
2023-12-15T04:27:38.228Z,11.67
2023-12-15T04:30:07.221Z,13.33
2023-12-15T04:32:34.032Z,12.30
2023-12-15T04:35:00.867Z,11.03
2023-12-15T04:37:27.542Z,11.97
2023-12-15T04:39:54.399Z,9.83
2023-12-15T04:42:21.022Z,11.50
2023-12-15T04:44:47.673Z,11.00
2023-12-15T04:47:14.316Z,11.40
2023-12-15T04:49:41.042Z,10.13
2023-12-15T04:52:07.740Z,10.73
2023-12-15T04:54:34.378Z,10.03
2023-12-15T04:57:00.980Z,10.10
2023-12-15T04:59:27.648Z,10.60
2023-12-15T05:01:54.926Z,10.70
2023-12-15T05:04:21.561Z,8.87
2023-12-15T05:06:48.176Z,9.20
2023-12-15T05:09:14.807Z,9.87
2023-12-15T05:11:41.553Z,8.90
2023-12-15T05:14:08.179Z,8.57
2023-12-15T05:16:34.879Z,8.77
2023-12-15T05:19:01.569Z,9.13
2023-12-15T05:21:28.229Z,9.73
2023-12-15T05:23:54.912Z,8.60
2023-12-15T05:26:21.521Z,9.77
2023-12-15T05:28:48.188Z,8.50
2023-12-15T05:31:14.876Z,7.60
2023-12-15T05:33:43.111Z,9.37
2023-12-15T05:36:20.536Z,9.17
2023-12-15T05:38:51.706Z,10.40
2023-12-15T05:41:18.333Z,10.43
2023-12-15T05:43:45.337Z,8.80
2023-12-15T05:46:12.104Z,8.00
2023-12-15T05:48:38.910Z,11.13
2023-12-15T05:51:07.590Z,11.67
2023-12-15T05:53:39.635Z,10.13
2023-12-15T05:56:12.478Z,8.73
2023-12-15T05:58:39.101Z,9.43
2023-12-15T06:01:06.090Z,10.63
2023-12-15T06:03:35.465Z,14.33
2023-12-15T06:06:03.077Z,9.60
2023-12-15T06:08:29.879Z,10.60
2023-12-15T06:10:56.577Z,11.63
2023-12-15T06:13:23.206Z,9.33
2023-12-15T06:15:49.841Z,11.27
2023-12-15T06:18:16.644Z,10.23
2023-12-15T06:20:43.412Z,11.20
2023-12-15T06:23:10.089Z,10.97
2023-12-15T06:25:36.769Z,12.57
2023-12-15T06:28:03.450Z,10.77
2023-12-15T06:30:30.150Z,9.00
2023-12-15T06:32:56.923Z,12.47
2023-12-15T06:35:23.600Z,11.00
2023-12-15T06:37:51.581Z,13.80
2023-12-15T06:40:18.224Z,12.50
2023-12-15T06:42:44.851Z,11.57
2023-12-15T06:45:11.497Z,9.73
2023-12-15T06:47:39.615Z,9.33
2023-12-15T06:50:07.337Z,11.83
2023-12-15T06:52:37.517Z,12.77
2023-12-15T06:55:04.622Z,9.57
2023-12-15T06:57:31.706Z,10.53
2023-12-15T06:59:58.461Z,13.37
2023-12-15T07:02:25.187Z,14.00
2023-12-15T07:04:52.098Z,16.20
2023-12-15T07:07:19.161Z,12.97
2023-12-15T07:09:45.913Z,15.27
2023-12-15T07:12:12.571Z,18.80
2023-12-15T07:14:39.272Z,18.43
2023-12-15T07:17:06.040Z,16.90
2023-12-15T07:19:33.014Z,14.20
2023-12-15T07:21:59.772Z,16.03
2023-12-15T07:24:26.964Z,16.57
2023-12-15T07:26:53.598Z,18.57
2023-12-15T07:29:22.545Z,16.70
2023-12-15T07:31:50.972Z,16.87
2023-12-15T07:34:18.411Z,15.47
2023-12-15T07:36:45.164Z,15.07
2023-12-15T07:39:11.885Z,15.77
2023-12-15T07:41:40.459Z,16.43
2023-12-15T07:44:07.798Z,15.53
2023-12-15T07:46:34.688Z,16.63
2023-12-15T07:49:01.739Z,19.37
2023-12-15T07:51:28.609Z,17.10
2023-12-15T07:53:55.289Z,16.47
2023-12-15T07:56:26.926Z,17.33
2023-12-15T07:58:55.098Z,14.87
2023-12-15T08:01:23.744Z,17.97
2023-12-15T08:03:53.890Z,16.80
2023-12-15T08:06:21.208Z,17.23
2023-12-15T08:08:48.794Z,15.13
2023-12-15T08:11:16.118Z,16.10
2023-12-15T08:13:42.950Z,19.23
2023-12-15T08:16:13.161Z,21.00
2023-12-15T08:18:42.724Z,17.33
2023-12-15T08:21:11.253Z,18.93
2023-12-15T08:23:37.998Z,18.83
2023-12-15T08:26:04.959Z,21.47
2023-12-15T08:28:31.632Z,17.90
2023-12-15T08:30:59.852Z,20.30
2023-12-15T08:33:26.722Z,18.17
2023-12-15T08:35:53.375Z,19.27
2023-12-15T08:38:20.026Z,15.93
2023-12-15T08:40:46.684Z,16.87
2023-12-15T08:43:14.726Z,20.07
2023-12-15T08:45:41.468Z,18.83
2023-12-15T08:48:09.546Z,21.20
2023-12-15T08:50:36.575Z,15.37
2023-12-15T08:53:03.537Z,17.93
2023-12-15T08:55:30.365Z,18.37
2023-12-15T08:57:57.071Z,17.90
2023-12-15T09:00:23.932Z,17.90
2023-12-15T09:02:53.432Z,20.10
2023-12-15T09:05:33.288Z,16.73
2023-12-15T09:08:09.761Z,16.60
2023-12-15T09:10:42.422Z,20.03
2023-12-15T09:13:09.165Z,16.83
2023-12-15T09:15:35.854Z,16.90
2023-12-15T09:18:02.726Z,21.43
2023-12-15T09:20:29.684Z,17.00
2023-12-15T09:22:56.642Z,17.57
2023-12-15T09:25:23.340Z,17.47
2023-12-15T09:27:50.010Z,15.57
2023-12-15T09:30:16.914Z,15.53
2023-12-15T09:32:44.038Z,16.43
2023-12-15T09:35:11.675Z,16.03
2023-12-15T09:37:38.691Z,18.23
2023-12-15T09:40:06.156Z,15.10
2023-12-15T09:42:32.790Z,17.07
2023-12-15T09:45:06.742Z,17.17
2023-12-15T09:47:38.235Z,17.60
2023-12-15T09:50:06.281Z,17.03
2023-12-15T09:52:33.641Z,16.23
2023-12-15T09:55:00.924Z,16.27
2023-12-15T09:57:28.021Z,14.07
2023-12-15T09:59:55.762Z,15.37
2023-12-15T10:02:22.421Z,15.97
2023-12-15T10:04:49.687Z,16.07
2023-12-15T10:07:16.502Z,15.97
2023-12-15T10:09:43.362Z,16.83
2023-12-15T10:12:11.205Z,17.67
2023-12-15T10:14:38.946Z,15.03
2023-12-15T10:17:14.709Z,18.80
2023-12-15T10:19:41.527Z,16.33
2023-12-15T10:22:08.225Z,16.83
2023-12-15T10:24:35.751Z,17.47
2023-12-15T10:27:04.674Z,18.50
2023-12-15T10:29:31.713Z,16.50
2023-12-15T10:31:59.503Z,18.83
2023-12-15T10:34:27.743Z,17.90
2023-12-15T10:36:55.262Z,17.83
2023-12-15T10:39:23.511Z,18.53
2023-12-15T10:41:52.867Z,21.00
2023-12-15T10:44:22.162Z,19.03
2023-12-15T10:46:49.461Z,19.23
2023-12-15T10:49:17.484Z,19.03
2023-12-15T10:51:44.758Z,17.37
2023-12-15T10:54:11.433Z,18.30
2023-12-15T10:56:39.473Z,17.47
2023-12-15T10:59:07.762Z,17.33
2023-12-15T11:01:40.252Z,17.63
2023-12-15T11:04:26.506Z,18.47
2023-12-15T11:06:54.524Z,17.50
2023-12-15T11:09:50.069Z,18.63
2023-12-15T11:12:33.196Z,21.73
2023-12-15T11:15:08.524Z,22.50
2023-12-15T11:17:41.549Z,21.87
2023-12-15T11:20:25.363Z,19.33
2023-12-15T11:22:59.683Z,19.20
2023-12-15T11:25:30.540Z,19.37
2023-12-15T11:28:09.308Z,18.47
2023-12-15T11:30:42.930Z,20.27
2023-12-15T11:33:41.699Z,18.67
2023-12-15T11:36:15.163Z,18.00
2023-12-15T11:38:43.582Z,18.40
2023-12-15T11:41:11.731Z,19.10
2023-12-15T11:43:39.130Z,19.63
2023-12-15T11:46:06.698Z,19.97
2023-12-15T11:48:37.200Z,18.40
2023-12-15T11:51:04.909Z,20.30
2023-12-15T11:53:33.477Z,16.70
2023-12-15T11:56:02.645Z,18.57
2023-12-15T11:58:29.602Z,26.53
2023-12-15T12:00:56.298Z,19.60
2023-12-15T12:03:24.165Z,17.17
2023-12-15T12:05:56.032Z,19.10
2023-12-15T12:08:23.920Z,19.33
2023-12-15T12:10:51.949Z,19.70
2023-12-15T12:13:18.670Z,20.33
2023-12-15T12:15:53.936Z,22.37
2023-12-15T12:18:22.071Z,19.03
2023-12-15T12:20:49.664Z,18.70
2023-12-15T12:23:24.852Z,20.40
2023-12-15T12:25:56.749Z,17.63
2023-12-15T12:28:28.689Z,18.87
2023-12-15T12:30:55.691Z,18.37
2023-12-15T12:33:22.866Z,18.50
2023-12-15T12:35:49.697Z,17.93
2023-12-15T12:38:16.428Z,18.10
2023-12-15T12:40:44.052Z,17.57
2023-12-15T12:43:10.720Z,18.30
2023-12-15T12:45:37.517Z,16.00
2023-12-15T12:48:05.602Z,20.77
2023-12-15T12:50:33.491Z,16.73
2023-12-15T12:53:00.554Z,14.40
2023-12-15T12:55:29.164Z,21.37
2023-12-15T12:57:56.655Z,16.03
2023-12-15T13:00:23.430Z,17.47
2023-12-15T13:02:51.565Z,18.83
2023-12-15T13:05:18.447Z,15.13
2023-12-15T13:07:45.218Z,17.50
2023-12-15T13:10:17.555Z,16.87
2023-12-15T13:12:46.282Z,15.17
2023-12-15T13:15:13.424Z,17.63
2023-12-15T13:17:43.437Z,14.67
2023-12-15T13:20:10.556Z,15.70
2023-12-15T13:22:47.252Z,15.63
2023-12-15T13:25:15.609Z,18.93
2023-12-15T13:27:42.653Z,16.10
2023-12-15T13:30:11.338Z,17.37
2023-12-15T13:32:39.582Z,17.80
2023-12-15T13:35:07.907Z,17.03
2023-12-15T13:37:35.014Z,15.67
2023-12-15T13:40:01.960Z,17.77
2023-12-15T13:42:28.658Z,17.93
2023-12-15T13:44:55.317Z,15.77
2023-12-15T13:47:22.508Z,16.43
2023-12-15T13:49:49.611Z,16.27
2023-12-15T13:52:16.390Z,16.80
2023-12-15T13:54:43.549Z,16.93
2023-12-15T13:57:10.265Z,15.63
2023-12-15T13:59:36.945Z,15.33
2023-12-15T14:02:04.780Z,14.20
2023-12-15T14:04:31.503Z,19.53
2023-12-15T14:07:01.219Z,16.37
2023-12-15T14:09:29.067Z,16.17
2023-12-15T14:11:56.960Z,16.07
2023-12-15T14:14:23.989Z,15.80
2023-12-15T14:16:50.812Z,16.13
2023-12-15T14:19:19.061Z,16.87
2023-12-15T14:21:46.725Z,16.07
2023-12-15T14:24:17.709Z,14.03
2023-12-15T14:26:45.578Z,15.90
2023-12-15T14:29:12.773Z,17.10
2023-12-15T14:31:39.878Z,18.20
2023-12-15T14:34:07.198Z,14.57
2023-12-15T14:36:34.159Z,15.57
2023-12-15T14:39:00.902Z,16.13
2023-12-15T14:41:28.488Z,18.13
2023-12-15T14:43:55.476Z,16.30
2023-12-15T14:46:23.198Z,17.27
2023-12-15T14:48:50.227Z,22.50
2023-12-15T14:51:17.030Z,14.63
2023-12-15T14:53:43.820Z,16.43
2023-12-15T14:56:12.427Z,17.03
2023-12-15T14:58:40.790Z,14.37
2023-12-15T15:01:07.984Z,16.67
2023-12-15T15:03:35.190Z,12.97
2023-12-15T15:06:02.973Z,16.83
2023-12-15T15:08:30.424Z,13.93
2023-12-15T15:10:59.594Z,18.53
2023-12-15T15:13:26.377Z,16.33
2023-12-15T15:15:53.476Z,19.13
2023-12-15T15:18:22.033Z,17.80
2023-12-15T15:20:49.212Z,17.93
2023-12-15T15:23:16.111Z,20.00
2023-12-15T15:25:42.967Z,21.60
2023-12-15T15:28:09.888Z,16.77
2023-12-15T15:30:39.040Z,19.33
2023-12-15T15:33:06.133Z,21.50
2023-12-15T15:35:32.953Z,16.83
2023-12-15T15:37:59.849Z,15.50
2023-12-15T15:40:26.809Z,21.63
2023-12-15T15:42:53.735Z,14.87
2023-12-15T15:45:20.767Z,17.87
2023-12-15T15:47:48.904Z,17.50
2023-12-15T15:50:15.852Z,21.77
2023-12-15T15:52:42.553Z,16.77
2023-12-15T15:55:09.622Z,18.00
2023-12-15T15:57:37.252Z,18.03
2023-12-15T16:00:04.814Z,20.80
2023-12-15T16:02:32.246Z,18.77
2023-12-15T16:04:59.748Z,17.43
2023-12-15T16:07:26.580Z,19.93
2023-12-15T16:09:53.418Z,21.17
2023-12-15T16:12:20.913Z,17.13
2023-12-15T16:14:47.739Z,21.27
2023-12-15T16:17:14.517Z,17.33
2023-12-15T16:19:41.427Z,17.27
2023-12-15T16:22:09.366Z,17.43
2023-12-15T16:24:36.289Z,18.30
2023-12-15T16:27:03.064Z,18.37
2023-12-15T16:29:29.960Z,17.63
2023-12-15T16:31:56.733Z,20.83
2023-12-15T16:34:23.504Z,20.03
2023-12-15T16:36:50.983Z,16.60
2023-12-15T16:39:17.706Z,18.67
2023-12-15T16:41:44.575Z,18.80
2023-12-15T16:44:11.354Z,19.93
2023-12-15T16:46:38.147Z,17.30
2023-12-15T16:49:05.230Z,16.03
2023-12-15T16:51:36.954Z,17.87
2023-12-15T16:54:04.331Z,19.30
2023-12-15T16:56:31.408Z,17.07
2023-12-15T16:58:58.254Z,17.90
2023-12-15T17:01:26.127Z,18.57
2023-12-15T17:03:52.944Z,20.13
2023-12-15T17:06:19.752Z,18.03
2023-12-15T17:08:46.635Z,19.13
2023-12-15T17:11:15.100Z,19.43
2023-12-15T17:13:45.024Z,17.17
2023-12-15T17:16:16.616Z,16.97
2023-12-15T17:18:48.213Z,18.47
2023-12-15T17:21:15.684Z,17.23
2023-12-15T17:23:42.683Z,18.83
2023-12-15T17:26:09.516Z,16.97
2023-12-15T17:28:36.224Z,16.67
2023-12-15T17:31:06.149Z,18.97
2023-12-15T17:33:33.048Z,19.23
2023-12-15T17:36:00.079Z,20.27
2023-12-15T17:38:26.851Z,17.80
2023-12-15T17:40:53.815Z,17.77
2023-12-15T17:43:20.969Z,19.50
2023-12-15T17:45:47.903Z,16.97
2023-12-15T17:48:16.456Z,17.03
2023-12-15T17:50:43.883Z,16.53
2023-12-15T17:53:10.702Z,17.93
2023-12-15T17:55:37.509Z,17.90
2023-12-15T17:58:05.492Z,15.60
2023-12-15T18:00:33.994Z,15.73
2023-12-15T18:03:01.703Z,17.60
2023-12-15T18:05:28.567Z,16.53
2023-12-15T18:08:02.733Z,16.23
2023-12-15T18:10:29.847Z,15.93
2023-12-15T18:12:56.625Z,14.77
2023-12-15T18:15:23.370Z,19.73
2023-12-15T18:17:50.964Z,21.87
2023-12-15T18:20:19.378Z,16.53
2023-12-15T18:22:46.678Z,15.67
2023-12-15T18:25:16.633Z,17.37
2023-12-15T18:27:44.961Z,19.43
2023-12-15T18:30:13.689Z,18.20
2023-12-15T18:32:41.745Z,17.97
2023-12-15T18:35:10.061Z,16.63
2023-12-15T18:37:36.971Z,19.10
2023-12-15T18:40:08.304Z,18.70
2023-12-15T18:42:35.245Z,16.50
2023-12-15T18:45:02.037Z,19.63
2023-12-15T18:47:29.690Z,19.20
2023-12-15T18:49:56.661Z,21.07
2023-12-15T18:52:23.551Z,17.17
2023-12-15T18:54:50.349Z,21.23
2023-12-15T18:57:17.139Z,19.80
2023-12-15T18:59:44.137Z,17.97
2023-12-15T19:02:12.393Z,20.70
2023-12-15T19:04:41.753Z,19.07
2023-12-15T19:07:08.824Z,18.33
2023-12-15T19:09:36.560Z,18.03
2023-12-15T19:12:03.429Z,17.50
2023-12-15T19:14:30.151Z,20.00
2023-12-15T19:16:57.611Z,17.20
2023-12-15T19:19:24.516Z,17.20
2023-12-15T19:21:51.316Z,17.07
2023-12-15T19:24:18.246Z,19.03
2023-12-15T19:26:45.504Z,17.87
2023-12-15T19:29:13.181Z,17.30
2023-12-15T19:31:40.623Z,17.10
2023-12-15T19:34:10.264Z,17.23
2023-12-15T19:36:39.027Z,19.53
2023-12-15T19:39:07.224Z,16.50
2023-12-15T19:41:35.617Z,18.17
2023-12-15T19:44:04.047Z,16.40
2023-12-15T19:46:37.876Z,16.10
2023-12-15T19:49:05.852Z,14.43
2023-12-15T19:51:32.910Z,16.40
2023-12-15T19:54:05.553Z,20.07
2023-12-15T19:56:41.919Z,18.00
2023-12-15T19:59:11.915Z,14.87
2023-12-15T20:01:38.806Z,15.97
2023-12-15T20:04:05.879Z,16.77
2023-12-15T20:06:34.557Z,16.57
2023-12-15T20:09:05.007Z,16.73
2023-12-15T20:11:35.259Z,15.47
2023-12-15T20:14:08.867Z,16.47
2023-12-15T20:16:36.012Z,17.87
2023-12-15T20:19:03.516Z,15.70
2023-12-15T20:21:30.749Z,16.90
2023-12-15T20:23:58.820Z,17.20
2023-12-15T20:26:25.602Z,16.50
2023-12-15T20:28:54.134Z,17.73
2023-12-15T20:31:20.955Z,16.93
2023-12-15T20:33:47.913Z,20.63
2023-12-15T20:36:19.552Z,17.03
2023-12-15T20:38:46.382Z,16.40
2023-12-15T20:41:20.385Z,18.07
2023-12-15T20:43:47.681Z,17.37
2023-12-15T20:46:15.124Z,19.37
2023-12-15T20:48:42.276Z,16.90
2023-12-15T20:51:10.060Z,17.20
2023-12-15T20:53:37.615Z,22.30
2023-12-15T20:56:04.847Z,17.00
2023-12-15T20:58:31.627Z,18.63
2023-12-15T21:00:58.509Z,18.47
2023-12-15T21:03:25.373Z,19.13
2023-12-15T21:05:52.129Z,19.20
2023-12-15T21:08:19.001Z,16.73
2023-12-15T21:10:45.834Z,15.57
2023-12-15T21:13:13.378Z,16.87
2023-12-15T21:15:43.280Z,14.50
2023-12-15T21:18:10.278Z,17.93
2023-12-15T21:20:37.274Z,20.67
2023-12-15T21:23:04.072Z,19.73
2023-12-15T21:25:30.823Z,17.50
2023-12-15T21:27:57.559Z,17.00
2023-12-15T21:30:25.108Z,18.80
2023-12-15T21:32:52.029Z,19.60
2023-12-15T21:35:19.162Z,17.83
2023-12-15T21:37:45.977Z,24.17
2023-12-15T21:40:13.152Z,16.97
2023-12-15T21:42:40.153Z,20.60
2023-12-15T21:45:08.917Z,19.30
2023-12-15T21:47:36.081Z,15.80
2023-12-15T21:50:03.580Z,17.97
2023-12-15T21:52:34.091Z,20.07
2023-12-15T21:55:01.831Z,19.03
2023-12-15T21:57:28.773Z,19.20
2023-12-15T21:59:56.687Z,15.60
2023-12-15T22:02:24.325Z,17.60
2023-12-15T22:04:51.095Z,19.93
2023-12-15T22:07:17.940Z,18.10
2023-12-15T22:09:44.821Z,18.30
2023-12-15T22:12:11.597Z,18.37
2023-12-15T22:14:44.993Z,17.47
2023-12-15T22:17:13.747Z,16.93
2023-12-15T22:19:40.945Z,18.57
2023-12-15T22:22:08.213Z,17.60
2023-12-15T22:24:35.518Z,17.77
2023-12-15T22:27:02.780Z,21.43
2023-12-15T22:29:29.465Z,21.10
2023-12-15T22:31:56.224Z,23.13
2023-12-15T22:34:23.088Z,18.07
2023-12-15T22:36:50.700Z,19.03
2023-12-15T22:39:17.448Z,14.53
2023-12-15T22:41:45.657Z,16.03
2023-12-15T22:44:13.050Z,18.57
2023-12-15T22:46:42.845Z,18.77
2023-12-15T22:49:10.130Z,20.40
2023-12-15T22:51:45.815Z,19.17
2023-12-15T22:54:13.213Z,14.80
2023-12-15T22:56:43.612Z,17.43
2023-12-15T22:59:13.021Z,19.23
2023-12-15T23:01:40.255Z,17.53
2023-12-15T23:04:10.211Z,20.50
2023-12-15T23:06:37.141Z,21.10
2023-12-15T23:09:09.499Z,20.47
2023-12-15T23:11:37.631Z,20.13
2023-12-15T23:14:04.962Z,18.23
2023-12-15T23:16:31.998Z,19.13
2023-12-15T23:18:58.984Z,19.10
2023-12-15T23:21:28.940Z,22.37
2023-12-15T23:23:56.713Z,22.33
2023-12-15T23:26:23.917Z,20.97
2023-12-15T23:28:50.971Z,23.40
2023-12-15T23:31:17.884Z,20.93
2023-12-15T23:33:44.930Z,20.67
2023-12-15T23:36:13.408Z,21.07
2023-12-15T23:38:41.123Z,25.20
2023-12-15T23:41:08.822Z,22.17
2023-12-15T23:43:35.853Z,24.33
2023-12-15T23:46:02.880Z,21.90
2023-12-15T23:48:29.676Z,26.07
2023-12-15T23:50:56.517Z,19.80
2023-12-15T23:53:23.269Z,18.03
2023-12-15T23:55:49.987Z,16.37
2023-12-15T23:58:17.602Z,21.43
